sensor_id;sensor_type;location;lat;lon;timestamp;temperature;humidity
17994;DHT22;9122;48.406;9.984;2022-11-20T00:03:23;8.00;94.70
17994;DHT22;9122;48.406;9.984;2022-11-20T00:06:15;7.90;95.10
17994;DHT22;9122;48.406;9.984;2022-11-20T00:09:00;7.90;94.90
17994;DHT22;9122;48.406;9.984;2022-11-20T00:11:45;7.90;94.90
17994;DHT22;9122;48.406;9.984;2022-11-20T00:14:40;7.50;95.20
17994;DHT22;9122;48.406;9.984;2022-11-20T00:17:25;7.90;95.00
17994;DHT22;9122;48.406;9.984;2022-11-20T00:20:10;7.80;95.00
17994;DHT22;9122;48.406;9.984;2022-11-20T00:22:55;7.80;95.00
17994;DHT22;9122;48.406;9.984;2022-11-20T00:25:39;7.80;95.00
17994;DHT22;9122;48.406;9.984;2022-11-20T00:28:24;7.80;95.10
17994;DHT22;9122;48.406;9.984;2022-11-20T00:31:12;7.80;95.10
17994;DHT22;9122;48.406;9.984;2022-11-20T00:33:57;7.80;95.20
17994;DHT22;9122;48.406;9.984;2022-11-20T00:36:41;7.80;95.10
17994;DHT22;9122;48.406;9.984;2022-11-20T00:39:25;7.80;94.90
17994;DHT22;9122;48.406;9.984;2022-11-20T00:42:09;7.80;94.80
17994;DHT22;9122;48.406;9.984;2022-11-20T00:44:54;7.70;94.80
17994;DHT22;9122;48.406;9.984;2022-11-20T00:47:38;7.70;94.80
17994;DHT22;9122;48.406;9.984;2022-11-20T00:50:22;7.60;94.80
17994;DHT22;9122;48.406;9.984;2022-11-20T00:53:06;7.60;94.70
17994;DHT22;9122;48.406;9.984;2022-11-20T00:58:42;7.50;94.80
17994;DHT22;9122;48.406;9.984;2022-11-20T01:01:28;7.50;94.80
17994;DHT22;9122;48.406;9.984;2022-11-20T01:04:15;7.50;94.80
17994;DHT22;9122;48.406;9.984;2022-11-20T01:07:01;7.40;94.70
17994;DHT22;9122;48.406;9.984;2022-11-20T01:09:45;7.30;94.70
17994;DHT22;9122;48.406;9.984;2022-11-20T01:12:30;7.40;94.80
17994;DHT22;9122;48.406;9.984;2022-11-20T01:15:15;7.30;94.70
17994;DHT22;9122;48.406;9.984;2022-11-20T01:17:59;8.80;95.10
17994;DHT22;9122;48.406;9.984;2022-11-20T01:20:44;7.30;94.70
17994;DHT22;9122;48.406;9.984;2022-11-20T01:23:36;7.30;94.70
17994;DHT22;9122;48.406;9.984;2022-11-20T01:26:24;7.20;94.70
17994;DHT22;9122;48.406;9.984;2022-11-20T01:29:18;7.20;94.70
17994;DHT22;9122;48.406;9.984;2022-11-20T01:32:03;7.20;94.70
17994;DHT22;9122;48.406;9.984;2022-11-20T01:34:47;7.10;94.70
17994;DHT22;9122;48.406;9.984;2022-11-20T01:37:32;7.10;94.70
17994;DHT22;9122;48.406;9.984;2022-11-20T01:40:16;7.10;95.00
17994;DHT22;9122;48.406;9.984;2022-11-20T01:43:17;7.10;94.70
17994;DHT22;9122;48.406;9.984;2022-11-20T01:52:05;7.00;94.60
17994;DHT22;9122;48.406;9.984;2022-11-20T01:55:01;7.00;94.70
17994;DHT22;9122;48.406;9.984;2022-11-20T01:57:49;6.90;94.60
17994;DHT22;9122;48.406;9.984;2022-11-20T02:00:33;6.90;94.70
17994;DHT22;9122;48.406;9.984;2022-11-20T02:03:19;6.90;94.80
17994;DHT22;9122;48.406;9.984;2022-11-20T02:06:53;6.80;94.80
17994;DHT22;9122;48.406;9.984;2022-11-20T02:09:16;6.80;94.80
17994;DHT22;9122;48.406;9.984;2022-11-20T02:12:01;6.70;94.90
17994;DHT22;9122;48.406;9.984;2022-11-20T02:14:46;6.80;94.90
17994;DHT22;9122;48.406;9.984;2022-11-20T02:17:31;6.70;95.00
17994;DHT22;9122;48.406;9.984;2022-11-20T02:20:15;6.70;94.90
17994;DHT22;9122;48.406;9.984;2022-11-20T02:25:54;6.70;95.00
17994;DHT22;9122;48.406;9.984;2022-11-20T02:28:39;6.60;95.00
17994;DHT22;9122;48.406;9.984;2022-11-20T02:31:24;6.60;95.00
17994;DHT22;9122;48.406;9.984;2022-11-20T02:34:09;6.60;95.10
17994;DHT22;9122;48.406;9.984;2022-11-20T02:36:53;6.60;95.10
17994;DHT22;9122;48.406;9.984;2022-11-20T02:39:38;6.60;95.10
17994;DHT22;9122;48.406;9.984;2022-11-20T02:42:27;6.60;95.10
17994;DHT22;9122;48.406;9.984;2022-11-20T02:45:12;6.50;95.10
17994;DHT22;9122;48.406;9.984;2022-11-20T02:47:56;6.50;95.10
17994;DHT22;9122;48.406;9.984;2022-11-20T02:50:40;6.60;95.10
17994;DHT22;9122;48.406;9.984;2022-11-20T02:53:28;6.50;95.10
17994;DHT22;9122;48.406;9.984;2022-11-20T02:56:18;6.50;95.10
17994;DHT22;9122;48.406;9.984;2022-11-20T02:59:02;6.50;95.10
17994;DHT22;9122;48.406;9.984;2022-11-20T03:01:47;6.50;95.10
17994;DHT22;9122;48.406;9.984;2022-11-20T03:04:32;6.40;95.00
17994;DHT22;9122;48.406;9.984;2022-11-20T03:07:16;6.30;95.00
17994;DHT22;9122;48.406;9.984;2022-11-20T03:10:01;6.40;95.10
17994;DHT22;9122;48.406;9.984;2022-11-20T03:12:45;6.70;95.30
17994;DHT22;9122;48.406;9.984;2022-11-20T03:15:30;6.40;95.20
17994;DHT22;9122;48.406;9.984;2022-11-20T03:18:14;7.10;95.40
17994;DHT22;9122;48.406;9.984;2022-11-20T03:20:59;6.30;95.20
17994;DHT22;9122;48.406;9.984;2022-11-20T03:23:44;6.30;95.20
17994;DHT22;9122;48.406;9.984;2022-11-20T03:26:29;6.30;95.20
17994;DHT22;9122;48.406;9.984;2022-11-20T03:29:13;6.30;95.20
17994;DHT22;9122;48.406;9.984;2022-11-20T03:31:58;6.20;95.20
17994;DHT22;9122;48.406;9.984;2022-11-20T03:34:42;6.30;95.30
17994;DHT22;9122;48.406;9.984;2022-11-20T03:37:26;6.20;95.20
17994;DHT22;9122;48.406;9.984;2022-11-20T03:40:11;6.20;95.30
17994;DHT22;9122;48.406;9.984;2022-11-20T03:42:56;6.20;95.20
17994;DHT22;9122;48.406;9.984;2022-11-20T03:45:39;6.20;95.20
17994;DHT22;9122;48.406;9.984;2022-11-20T03:48:24;6.20;95.20
17994;DHT22;9122;48.406;9.984;2022-11-20T03:51:19;6.20;95.10
17994;DHT22;9122;48.406;9.984;2022-11-20T03:54:06;6.20;95.10
17994;DHT22;9122;48.406;9.984;2022-11-20T03:56:50;6.20;95.10
17994;DHT22;9122;48.406;9.984;2022-11-20T03:59:38;6.10;95.10
17994;DHT22;9122;48.406;9.984;2022-11-20T04:02:23;6.10;95.10
17994;DHT22;9122;48.406;9.984;2022-11-20T04:05:08;6.10;95.20
17994;DHT22;9122;48.406;9.984;2022-11-20T04:07:52;6.10;95.10
17994;DHT22;9122;48.406;9.984;2022-11-20T04:10:37;6.10;95.20
17994;DHT22;9122;48.406;9.984;2022-11-20T04:13:21;6.00;95.20
17994;DHT22;9122;48.406;9.984;2022-11-20T04:16:07;6.10;95.20
17994;DHT22;9122;48.406;9.984;2022-11-20T04:18:55;6.00;95.20
17994;DHT22;9122;48.406;9.984;2022-11-20T04:21:41;6.00;95.20
17994;DHT22;9122;48.406;9.984;2022-11-20T04:24:26;5.90;95.40
17994;DHT22;9122;48.406;9.984;2022-11-20T04:27:11;5.90;95.30
17994;DHT22;9122;48.406;9.984;2022-11-20T04:29:55;5.90;95.40
17994;DHT22;9122;48.406;9.984;2022-11-20T04:32:39;5.90;95.50
17994;DHT22;9122;48.406;9.984;2022-11-20T04:35:24;5.90;95.50
17994;DHT22;9122;48.406;9.984;2022-11-20T04:38:08;5.90;95.50
17994;DHT22;9122;48.406;9.984;2022-11-20T04:41:00;5.90;95.60
17994;DHT22;9122;48.406;9.984;2022-11-20T04:43:49;5.90;95.70
17994;DHT22;9122;48.406;9.984;2022-11-20T04:46:37;5.90;95.70
17994;DHT22;9122;48.406;9.984;2022-11-20T04:49:24;5.90;95.70
17994;DHT22;9122;48.406;9.984;2022-11-20T04:52:08;5.90;95.80
17994;DHT22;9122;48.406;9.984;2022-11-20T04:54:53;5.90;95.80
17994;DHT22;9122;48.406;9.984;2022-11-20T04:57:38;5.90;95.80
17994;DHT22;9122;48.406;9.984;2022-11-20T05:00:26;5.90;95.80
17994;DHT22;9122;48.406;9.984;2022-11-20T05:03:10;5.90;95.80
17994;DHT22;9122;48.406;9.984;2022-11-20T05:05:54;5.80;95.70
17994;DHT22;9122;48.406;9.984;2022-11-20T05:08:39;5.90;95.60
17994;DHT22;9122;48.406;9.984;2022-11-20T05:11:24;5.80;95.80
17994;DHT22;9122;48.406;9.984;2022-11-20T05:14:08;5.80;96.00
17994;DHT22;9122;48.406;9.984;2022-11-20T05:16:53;5.80;95.70
17994;DHT22;9122;48.406;9.984;2022-11-20T05:19:38;5.80;95.60
17994;DHT22;9122;48.406;9.984;2022-11-20T05:22:22;6.70;96.00
17994;DHT22;9122;48.406;9.984;2022-11-20T05:25:10;5.80;95.70
17994;DHT22;9122;48.406;9.984;2022-11-20T05:27:55;5.80;96.20
17994;DHT22;9122;48.406;9.984;2022-11-20T05:30:39;5.80;95.80
17994;DHT22;9122;48.406;9.984;2022-11-20T05:33:24;5.70;95.80
17994;DHT22;9122;48.406;9.984;2022-11-20T05:36:09;5.70;96.00
17994;DHT22;9122;48.406;9.984;2022-11-20T05:38:56;5.70;96.00
17994;DHT22;9122;48.406;9.984;2022-11-20T05:41:48;5.70;95.80
17994;DHT22;9122;48.406;9.984;2022-11-20T05:44:53;5.70;96.00
17994;DHT22;9122;48.406;9.984;2022-11-20T05:47:37;5.70;96.20
17994;DHT22;9122;48.406;9.984;2022-11-20T05:50:22;6.00;96.10
17994;DHT22;9122;48.406;9.984;2022-11-20T05:53:06;5.70;96.20
17994;DHT22;9122;48.406;9.984;2022-11-20T05:56:14;5.70;96.30
17994;DHT22;9122;48.406;9.984;2022-11-20T05:58:58;5.70;96.30
17994;DHT22;9122;48.406;9.984;2022-11-20T06:01:43;5.70;96.40
17994;DHT22;9122;48.406;9.984;2022-11-20T06:04:27;5.70;96.50
17994;DHT22;9122;48.406;9.984;2022-11-20T06:07:12;5.70;96.60
17994;DHT22;9122;48.406;9.984;2022-11-20T06:09:56;6.00;96.70
17994;DHT22;9122;48.406;9.984;2022-11-20T06:12:42;5.70;96.80
17994;DHT22;9122;48.406;9.984;2022-11-20T06:15:29;5.70;97.00
17994;DHT22;9122;48.406;9.984;2022-11-20T06:18:13;5.60;96.80
17994;DHT22;9122;48.406;9.984;2022-11-20T06:23:46;6.10;97.10
17994;DHT22;9122;48.406;9.984;2022-11-20T06:26:31;5.60;97.00
17994;DHT22;9122;48.406;9.984;2022-11-20T06:29:17;5.60;97.20
17994;DHT22;9122;48.406;9.984;2022-11-20T06:32:02;5.60;97.20
17994;DHT22;9122;48.406;9.984;2022-11-20T06:34:47;5.60;97.20
17994;DHT22;9122;48.406;9.984;2022-11-20T06:37:31;5.60;97.20
17994;DHT22;9122;48.406;9.984;2022-11-20T06:40:18;5.60;97.20
17994;DHT22;9122;48.406;9.984;2022-11-20T06:43:04;5.60;97.20
17994;DHT22;9122;48.406;9.984;2022-11-20T06:45:52;5.70;97.50
17994;DHT22;9122;48.406;9.984;2022-11-20T06:48:38;5.70;97.30
17994;DHT22;9122;48.406;9.984;2022-11-20T06:51:22;5.60;97.60
17994;DHT22;9122;48.406;9.984;2022-11-20T06:54:07;5.70;98.20
17994;DHT22;9122;48.406;9.984;2022-11-20T06:56:52;5.70;97.40
17994;DHT22;9122;48.406;9.984;2022-11-20T06:59:36;5.60;97.40
17994;DHT22;9122;48.406;9.984;2022-11-20T07:02:21;5.70;97.40
17994;DHT22;9122;48.406;9.984;2022-11-20T07:05:06;5.70;97.50
17994;DHT22;9122;48.406;9.984;2022-11-20T07:08:08;5.70;97.10
17994;DHT22;9122;48.406;9.984;2022-11-20T07:11:00;5.70;97.60
17994;DHT22;9122;48.406;9.984;2022-11-20T07:18:03;5.70;97.40
17994;DHT22;9122;48.406;9.984;2022-11-20T07:21:17;5.90;97.50
17994;DHT22;9122;48.406;9.984;2022-11-20T07:24:28;4.30;97.10
17994;DHT22;9122;48.406;9.984;2022-11-20T07:27:24;6.00;97.50
17994;DHT22;9122;48.406;9.984;2022-11-20T07:30:19;5.90;97.50
17994;DHT22;9122;48.406;9.984;2022-11-20T07:33:18;6.00;98.60
17994;DHT22;9122;48.406;9.984;2022-11-20T07:36:07;6.40;97.70
17994;DHT22;9122;48.406;9.984;2022-11-20T07:38:53;5.70;97.40
17994;DHT22;9122;48.406;9.984;2022-11-20T07:41:48;5.90;99.40
17994;DHT22;9122;48.406;9.984;2022-11-20T07:44:48;5.30;97.30
17994;DHT22;9122;48.406;9.984;2022-11-20T07:47:36;5.80;97.40
17994;DHT22;9122;48.406;9.984;2022-11-20T07:50:24;5.80;97.30
17994;DHT22;9122;48.406;9.984;2022-11-20T07:53:09;5.70;97.20
17994;DHT22;9122;48.406;9.984;2022-11-20T07:55:54;5.80;97.80
17994;DHT22;9122;48.406;9.984;2022-11-20T07:58:38;5.80;97.20
17994;DHT22;9122;48.406;9.984;2022-11-20T08:01:23;5.80;97.30
17994;DHT22;9122;48.406;9.984;2022-11-20T08:04:11;5.80;97.10
17994;DHT22;9122;48.406;9.984;2022-11-20T08:06:55;5.80;97.10
17994;DHT22;9122;48.406;9.984;2022-11-20T08:09:40;5.80;97.10
17994;DHT22;9122;48.406;9.984;2022-11-20T08:12:36;5.90;97.20
17994;DHT22;9122;48.406;9.984;2022-11-20T08:15:51;5.80;97.20
17994;DHT22;9122;48.406;9.984;2022-11-20T08:18:43;5.80;97.20
17994;DHT22;9122;48.406;9.984;2022-11-20T08:21:32;5.90;97.30
17994;DHT22;9122;48.406;9.984;2022-11-20T08:24:23;5.90;98.00
17994;DHT22;9122;48.406;9.984;2022-11-20T08:27:11;5.90;97.30
17994;DHT22;9122;48.406;9.984;2022-11-20T08:30:14;6.00;97.60
17994;DHT22;9122;48.406;9.984;2022-11-20T08:33:22;6.00;98.60
17994;DHT22;9122;48.406;9.984;2022-11-20T08:36:07;5.70;98.20
17994;DHT22;9122;48.406;9.984;2022-11-20T08:38:55;5.90;97.40
17994;DHT22;9122;48.406;9.984;2022-11-20T08:44:24;5.90;97.20
17994;DHT22;9122;48.406;9.984;2022-11-20T08:47:09;6.00;97.50
17994;DHT22;9122;48.406;9.984;2022-11-20T08:49:54;5.90;97.40
17994;DHT22;9122;48.406;9.984;2022-11-20T08:52:38;6.00;97.50
17994;DHT22;9122;48.406;9.984;2022-11-20T08:55:23;6.00;97.50
17994;DHT22;9122;48.406;9.984;2022-11-20T08:58:08;6.00;97.40
17994;DHT22;9122;48.406;9.984;2022-11-20T09:00:53;6.00;97.40
17994;DHT22;9122;48.406;9.984;2022-11-20T09:03:39;6.00;97.50
17994;DHT22;9122;48.406;9.984;2022-11-20T09:06:27;6.00;97.50
17994;DHT22;9122;48.406;9.984;2022-11-20T09:09:11;6.00;97.50
17994;DHT22;9122;48.406;9.984;2022-11-20T09:11:55;6.10;97.50
17994;DHT22;9122;48.406;9.984;2022-11-20T09:14:46;6.10;97.60
17994;DHT22;9122;48.406;9.984;2022-11-20T09:17:30;6.10;97.50
17994;DHT22;9122;48.406;9.984;2022-11-20T09:20:14;6.20;97.50
17994;DHT22;9122;48.406;9.984;2022-11-20T09:23:00;6.20;97.40
17994;DHT22;9122;48.406;9.984;2022-11-20T09:25:44;6.20;97.30
17994;DHT22;9122;48.406;9.984;2022-11-20T09:28:31;6.20;97.30
17994;DHT22;9122;48.406;9.984;2022-11-20T09:31:23;6.20;97.30
17994;DHT22;9122;48.406;9.984;2022-11-20T09:34:08;6.20;97.50
17994;DHT22;9122;48.406;9.984;2022-11-20T09:36:52;6.20;97.30
17994;DHT22;9122;48.406;9.984;2022-11-20T09:39:37;6.20;97.30
17994;DHT22;9122;48.406;9.984;2022-11-20T09:42:45;6.30;97.30
17994;DHT22;9122;48.406;9.984;2022-11-20T09:51:59;6.30;97.20
17994;DHT22;9122;48.406;9.984;2022-11-20T09:54:43;6.30;97.20
17994;DHT22;9122;48.406;9.984;2022-11-20T09:57:37;6.30;97.20
17994;DHT22;9122;48.406;9.984;2022-11-20T10:00:23;6.30;97.10
17994;DHT22;9122;48.406;9.984;2022-11-20T10:03:26;6.40;97.50
17994;DHT22;9122;48.406;9.984;2022-11-20T10:06:17;6.30;97.20
17994;DHT22;9122;48.406;9.984;2022-11-20T10:18:06;6.40;96.90
17994;DHT22;9122;48.406;9.984;2022-11-20T10:30:27;6.50;96.90
17994;DHT22;9122;48.406;9.984;2022-11-20T10:33:21;6.50;97.00
17994;DHT22;9122;48.406;9.984;2022-11-20T10:36:40;6.50;97.00
17994;DHT22;9122;48.406;9.984;2022-11-20T10:42:53;6.60;97.10
17994;DHT22;9122;48.406;9.984;2022-11-20T10:45:50;6.60;97.00
17994;DHT22;9122;48.406;9.984;2022-11-20T10:48:47;6.60;97.00
17994;DHT22;9122;48.406;9.984;2022-11-20T10:51:59;6.60;97.00
17994;DHT22;9122;48.406;9.984;2022-11-20T10:58:12;6.70;97.20
17994;DHT22;9122;48.406;9.984;2022-11-20T11:01:05;6.70;97.60
17994;DHT22;9122;48.406;9.984;2022-11-20T11:03:51;6.70;97.90
17994;DHT22;9122;48.406;9.984;2022-11-20T11:06:42;6.90;98.10
17994;DHT22;9122;48.406;9.984;2022-11-20T11:09:34;6.70;98.20
17994;DHT22;9122;48.406;9.984;2022-11-20T11:12:23;6.70;98.30
17994;DHT22;9122;48.406;9.984;2022-11-20T11:15:14;6.80;98.40
17994;DHT22;9122;48.406;9.984;2022-11-20T11:18:00;6.80;98.50
17994;DHT22;9122;48.406;9.984;2022-11-20T11:20:50;6.80;98.60
17994;DHT22;9122;48.406;9.984;2022-11-20T11:23:39;6.80;98.90
17994;DHT22;9122;48.406;9.984;2022-11-20T11:26:24;6.80;98.50
17994;DHT22;9122;48.406;9.984;2022-11-20T11:29:17;6.80;98.60
17994;DHT22;9122;48.406;9.984;2022-11-20T11:32:13;6.80;98.60
17994;DHT22;9122;48.406;9.984;2022-11-20T11:35:00;6.80;98.40
17994;DHT22;9122;48.406;9.984;2022-11-20T11:37:45;6.80;98.40
17994;DHT22;9122;48.406;9.984;2022-11-20T11:40:33;6.90;98.40
17994;DHT22;9122;48.406;9.984;2022-11-20T11:43:28;6.90;98.40
17994;DHT22;9122;48.406;9.984;2022-11-20T11:46:35;6.90;98.40
17994;DHT22;9122;48.406;9.984;2022-11-20T11:49:20;6.80;98.40
17994;DHT22;9122;48.406;9.984;2022-11-20T11:55:05;6.90;98.50
17994;DHT22;9122;48.406;9.984;2022-11-20T11:58:11;6.90;98.50
17994;DHT22;9122;48.406;9.984;2022-11-20T12:01:22;6.90;98.50
17994;DHT22;9122;48.406;9.984;2022-11-20T12:07:20;7.00;98.50
17994;DHT22;9122;48.406;9.984;2022-11-20T12:10:12;7.00;98.40
17994;DHT22;9122;48.406;9.984;2022-11-20T12:13:08;7.00;98.40
17994;DHT22;9122;48.406;9.984;2022-11-20T12:15:55;7.00;98.30
17994;DHT22;9122;48.406;9.984;2022-11-20T12:18:41;7.00;98.30
17994;DHT22;9122;48.406;9.984;2022-11-20T12:21:33;7.10;98.20
17994;DHT22;9122;48.406;9.984;2022-11-20T12:28:01;7.10;98.20
17994;DHT22;9122;48.406;9.984;2022-11-20T12:30:59;7.20;98.30
17994;DHT22;9122;48.406;9.984;2022-11-20T12:34:18;7.20;98.30
17994;DHT22;9122;48.406;9.984;2022-11-20T12:43:21;7.20;98.00
17994;DHT22;9122;48.406;9.984;2022-11-20T12:52:28;7.30;98.20
17994;DHT22;9122;48.406;9.984;2022-11-20T13:01:39;7.30;97.40
17994;DHT22;9122;48.406;9.984;2022-11-20T13:07:40;7.40;96.50
17994;DHT22;9122;48.406;9.984;2022-11-20T13:10:35;7.40;96.20
17994;DHT22;9122;48.406;9.984;2022-11-20T13:16:45;7.60;95.60
17994;DHT22;9122;48.406;9.984;2022-11-20T13:19:34;7.60;95.40
17994;DHT22;9122;48.406;9.984;2022-11-20T13:22:46;7.60;95.40
17994;DHT22;9122;48.406;9.984;2022-11-20T13:25:47;7.10;95.10
17994;DHT22;9122;48.406;9.984;2022-11-20T13:28:34;7.70;94.50
17994;DHT22;9122;48.406;9.984;2022-11-20T13:31:42;7.70;94.80
17994;DHT22;9122;48.406;9.984;2022-11-20T13:34:27;7.70;94.50
17994;DHT22;9122;48.406;9.984;2022-11-20T13:37:37;7.70;94.40
17994;DHT22;9122;48.406;9.984;2022-11-20T13:40:23;7.70;94.20
17994;DHT22;9122;48.406;9.984;2022-11-20T13:46:10;7.80;94.10
17994;DHT22;9122;48.406;9.984;2022-11-20T13:48:55;7.80;93.90
17994;DHT22;9122;48.406;9.984;2022-11-20T13:55:02;7.90;93.40
17994;DHT22;9122;48.406;9.984;2022-11-20T14:00:33;7.90;93.00
17994;DHT22;9122;48.406;9.984;2022-11-20T14:03:30;7.90;93.10
17994;DHT22;9122;48.406;9.984;2022-11-20T14:06:31;8.00;93.10
17994;DHT22;9122;48.406;9.984;2022-11-20T14:09:31;7.90;93.00
17994;DHT22;9122;48.406;9.984;2022-11-20T14:12:17;7.90;92.90
17994;DHT22;9122;48.406;9.984;2022-11-20T14:15:02;7.90;92.90
17994;DHT22;9122;48.406;9.984;2022-11-20T14:18:12;8.00;92.90
17994;DHT22;9122;48.406;9.984;2022-11-20T14:21:00;8.00;92.90
17994;DHT22;9122;48.406;9.984;2022-11-20T14:23:48;8.00;92.90
17994;DHT22;9122;48.406;9.984;2022-11-20T14:29:28;8.00;92.50
17994;DHT22;9122;48.406;9.984;2022-11-20T14:32:21;8.00;92.60
17994;DHT22;9122;48.406;9.984;2022-11-20T14:38:14;8.00;92.40
17994;DHT22;9122;48.406;9.984;2022-11-20T14:41:22;8.00;92.40
17994;DHT22;9122;48.406;9.984;2022-11-20T14:44:09;8.00;92.30
17994;DHT22;9122;48.406;9.984;2022-11-20T14:47:05;8.00;92.30
17994;DHT22;9122;48.406;9.984;2022-11-20T14:49:51;8.00;92.10
17994;DHT22;9122;48.406;9.984;2022-11-20T14:55:28;8.00;91.60
17994;DHT22;9122;48.406;9.984;2022-11-20T14:58:27;8.00;91.90
17994;DHT22;9122;48.406;9.984;2022-11-20T15:01:12;8.00;91.70
17994;DHT22;9122;48.406;9.984;2022-11-20T15:04:06;8.10;91.80
17994;DHT22;9122;48.406;9.984;2022-11-20T15:06:57;8.00;91.40
17994;DHT22;9122;48.406;9.984;2022-11-20T15:09:41;8.00;91.20
17994;DHT22;9122;48.406;9.984;2022-11-20T15:12:34;7.70;91.10
17994;DHT22;9122;48.406;9.984;2022-11-20T15:18:21;8.00;91.30
17994;DHT22;9122;48.406;9.984;2022-11-20T15:21:14;8.00;91.40
17994;DHT22;9122;48.406;9.984;2022-11-20T15:23:59;8.00;91.50
17994;DHT22;9122;48.406;9.984;2022-11-20T15:26:45;7.90;91.70
17994;DHT22;9122;48.406;9.984;2022-11-20T15:29:30;8.00;91.80
17994;DHT22;9122;48.406;9.984;2022-11-20T15:32:14;8.00;91.90
17994;DHT22;9122;48.406;9.984;2022-11-20T15:34:59;8.00;91.80
17994;DHT22;9122;48.406;9.984;2022-11-20T15:37:43;8.00;91.90
17994;DHT22;9122;48.406;9.984;2022-11-20T15:40:29;7.90;92.20
17994;DHT22;9122;48.406;9.984;2022-11-20T15:43:14;7.90;92.50
17994;DHT22;9122;48.406;9.984;2022-11-20T15:46:05;7.90;92.90
17994;DHT22;9122;48.406;9.984;2022-11-20T15:48:59;7.90;93.20
17994;DHT22;9122;48.406;9.984;2022-11-20T15:51:48;7.80;93.30
17994;DHT22;9122;48.406;9.984;2022-11-20T15:54:37;7.80;93.60
17994;DHT22;9122;48.406;9.984;2022-11-20T15:57:24;7.80;93.70
17994;DHT22;9122;48.406;9.984;2022-11-20T16:00:10;7.80;93.80
17994;DHT22;9122;48.406;9.984;2022-11-20T16:02:55;7.80;93.90
17994;DHT22;9122;48.406;9.984;2022-11-20T16:05:39;7.80;94.10
17994;DHT22;9122;48.406;9.984;2022-11-20T16:08:24;7.70;94.10
17994;DHT22;9122;48.406;9.984;2022-11-20T16:11:14;7.60;94.10
17994;DHT22;9122;48.406;9.984;2022-11-20T16:13:59;7.70;94.20
17994;DHT22;9122;48.406;9.984;2022-11-20T16:17:03;7.70;94.20
17994;DHT22;9122;48.406;9.984;2022-11-20T16:19:48;7.60;94.20
17994;DHT22;9122;48.406;9.984;2022-11-20T16:22:32;7.60;94.30
17994;DHT22;9122;48.406;9.984;2022-11-20T16:25:17;7.60;94.40
17994;DHT22;9122;48.406;9.984;2022-11-20T16:28:02;7.60;94.30
17994;DHT22;9122;48.406;9.984;2022-11-20T16:30:47;7.60;94.30
17994;DHT22;9122;48.406;9.984;2022-11-20T16:33:32;7.50;95.10
17994;DHT22;9122;48.406;9.984;2022-11-20T16:36:17;7.30;94.30
17994;DHT22;9122;48.406;9.984;2022-11-20T16:39:04;7.50;94.40
17994;DHT22;9122;48.406;9.984;2022-11-20T16:41:52;7.50;94.40
17994;DHT22;9122;48.406;9.984;2022-11-20T16:44:39;7.50;94.50
17994;DHT22;9122;48.406;9.984;2022-11-20T16:47:34;7.50;94.60
17994;DHT22;9122;48.406;9.984;2022-11-20T16:50:23;7.50;94.70
17994;DHT22;9122;48.406;9.984;2022-11-20T16:58:59;7.40;94.50
17994;DHT22;9122;48.406;9.984;2022-11-20T17:01:51;7.40;95.80
17994;DHT22;9122;48.406;9.984;2022-11-20T17:04:36;7.40;94.90
17994;DHT22;9122;48.406;9.984;2022-11-20T17:07:21;7.40;94.80
17994;DHT22;9122;48.406;9.984;2022-11-20T17:10:06;7.40;94.90
17994;DHT22;9122;48.406;9.984;2022-11-20T17:12:50;7.40;94.90
17994;DHT22;9122;48.406;9.984;2022-11-20T17:15:35;7.40;94.90
17994;DHT22;9122;48.406;9.984;2022-11-20T17:18:19;7.30;94.90
17994;DHT22;9122;48.406;9.984;2022-11-20T17:21:04;7.30;95.00
17994;DHT22;9122;48.406;9.984;2022-11-20T17:23:49;7.30;95.00
17994;DHT22;9122;48.406;9.984;2022-11-20T17:26:35;7.30;95.10
17994;DHT22;9122;48.406;9.984;2022-11-20T17:29:20;7.20;95.10
17994;DHT22;9122;48.406;9.984;2022-11-20T17:32:07;7.30;95.20
17994;DHT22;9122;48.406;9.984;2022-11-20T17:34:51;7.30;95.30
17994;DHT22;9122;48.406;9.984;2022-11-20T17:37:37;7.20;95.20
17994;DHT22;9122;48.406;9.984;2022-11-20T17:40:21;7.20;95.30
17994;DHT22;9122;48.406;9.984;2022-11-20T17:43:06;7.20;95.30
17994;DHT22;9122;48.406;9.984;2022-11-20T17:45:50;7.20;95.60
17994;DHT22;9122;48.406;9.984;2022-11-20T17:48:36;7.20;95.40
17994;DHT22;9122;48.406;9.984;2022-11-20T17:51:35;7.20;95.50
17994;DHT22;9122;48.406;9.984;2022-11-20T17:57:10;7.20;95.30
17994;DHT22;9122;48.406;9.984;2022-11-20T18:00:14;7.20;95.60
17994;DHT22;9122;48.406;9.984;2022-11-20T18:03:00;7.20;95.60
17994;DHT22;9122;48.406;9.984;2022-11-20T18:05:45;7.20;95.60
17994;DHT22;9122;48.406;9.984;2022-11-20T18:08:29;7.20;95.60
17994;DHT22;9122;48.406;9.984;2022-11-20T18:11:30;7.20;95.70
17994;DHT22;9122;48.406;9.984;2022-11-20T18:14:16;7.20;96.10
17994;DHT22;9122;48.406;9.984;2022-11-20T18:17:13;7.10;95.60
17994;DHT22;9122;48.406;9.984;2022-11-20T18:19:58;7.10;95.60
17994;DHT22;9122;48.406;9.984;2022-11-20T18:22:42;7.10;95.60
17994;DHT22;9122;48.406;9.984;2022-11-20T18:25:30;7.10;95.70
17994;DHT22;9122;48.406;9.984;2022-11-20T18:28:14;7.10;95.60
17994;DHT22;9122;48.406;9.984;2022-11-20T18:31:06;7.10;95.60
17994;DHT22;9122;48.406;9.984;2022-11-20T18:33:52;7.00;95.60
17994;DHT22;9122;48.406;9.984;2022-11-20T18:36:38;7.10;95.60
17994;DHT22;9122;48.406;9.984;2022-11-20T18:39:23;5.50;95.10
17994;DHT22;9122;48.406;9.984;2022-11-20T18:42:13;7.10;95.60
17994;DHT22;9122;48.406;9.984;2022-11-20T18:45:16;7.00;95.60
17994;DHT22;9122;48.406;9.984;2022-11-20T18:48:01;7.10;95.60
17994;DHT22;9122;48.406;9.984;2022-11-20T18:50:45;7.10;95.60
17994;DHT22;9122;48.406;9.984;2022-11-20T18:53:30;7.00;95.70
17994;DHT22;9122;48.406;9.984;2022-11-20T18:56:14;7.00;96.00
17994;DHT22;9122;48.406;9.984;2022-11-20T18:59:00;7.00;95.70
17994;DHT22;9122;48.406;9.984;2022-11-20T19:01:45;7.00;95.70
17994;DHT22;9122;48.406;9.984;2022-11-20T19:04:30;7.00;95.70
17994;DHT22;9122;48.406;9.984;2022-11-20T19:07:16;7.00;95.70
17994;DHT22;9122;48.406;9.984;2022-11-20T19:10:01;7.00;95.60
17994;DHT22;9122;48.406;9.984;2022-11-20T19:12:46;7.00;95.60
17994;DHT22;9122;48.406;9.984;2022-11-20T19:15:31;7.00;95.70
17994;DHT22;9122;48.406;9.984;2022-11-20T19:18:16;7.00;95.70
17994;DHT22;9122;48.406;9.984;2022-11-20T19:23:54;7.00;95.70
17994;DHT22;9122;48.406;9.984;2022-11-20T19:26:39;7.00;95.70
17994;DHT22;9122;48.406;9.984;2022-11-20T19:29:24;7.00;95.70
17994;DHT22;9122;48.406;9.984;2022-11-20T19:32:09;6.90;95.60
17994;DHT22;9122;48.406;9.984;2022-11-20T19:34:54;6.90;95.70
17994;DHT22;9122;48.406;9.984;2022-11-20T19:37:39;6.90;96.00
17994;DHT22;9122;48.406;9.984;2022-11-20T19:40:25;6.90;95.70
17994;DHT22;9122;48.406;9.984;2022-11-20T19:43:10;6.90;95.60
17994;DHT22;9122;48.406;9.984;2022-11-20T19:45:54;6.90;95.60
17994;DHT22;9122;48.406;9.984;2022-11-20T19:48:39;6.90;95.60
17994;DHT22;9122;48.406;9.984;2022-11-20T19:51:29;6.90;95.70
17994;DHT22;9122;48.406;9.984;2022-11-20T19:54:14;6.90;95.70
17994;DHT22;9122;48.406;9.984;2022-11-20T19:56:59;6.90;95.80
17994;DHT22;9122;48.406;9.984;2022-11-20T19:59:44;6.90;95.90
17994;DHT22;9122;48.406;9.984;2022-11-20T20:02:29;6.90;96.00
17994;DHT22;9122;48.406;9.984;2022-11-20T20:05:14;6.90;96.20
17994;DHT22;9122;48.406;9.984;2022-11-20T20:07:58;6.90;96.20
17994;DHT22;9122;48.406;9.984;2022-11-20T20:10:43;6.90;96.30
17994;DHT22;9122;48.406;9.984;2022-11-20T20:13:28;6.90;96.20
17994;DHT22;9122;48.406;9.984;2022-11-20T20:16:15;6.90;96.10
17994;DHT22;9122;48.406;9.984;2022-11-20T20:19:01;6.90;96.00
17994;DHT22;9122;48.406;9.984;2022-11-20T20:21:45;6.90;96.10